Hauptseite
METAR-TAF:

METAR-TAF

Flughäfen :

Flughafen Kairo

Kairo, Ägypten

Breite: 30-08N, Länge: 031-24E, Höhe: 64 m

Beobachtung

Neuester Wetterbericht von vor 31 Minuten, um 18:30 UTC
Wind 5 kt aus Süd
Temperatur 28°C
Luftfeuchtigkeit 35%
Luftdruck 1011 hPa
Sichtweite: 6000 m

METAR: HECA 231830Z 17005KT 6000 NSC 28/11 Q1011 NOSIG

Zeit: 21:01 (19:01 UTC)

Prognose

Neuester Wetterbericht von vor 2 Stunden und 1 Minuten, um 17:00 UTC
Gültige Prognose vom 23 um 18 UTC bis 24 um 24 UTC
Wind 6 kt aus Süd/Südwest
Sichtweite 10 km oder mehr
Aufgelockert bewölkt in der Höhe von 2500 ft
Zeitweise
vom 23 um 20 UTC bis 24 um 12 UTC
Sichtweite: 6000 m
Zeitweise
vom 23 um 22 UTC bis 24 um 08 UTC
Wind 3 kt aus unterschiedlichen Richtungen
Sichtweite: 3000 m
trockener Dunst

TAF: HECA 231700Z 2318/2424 20006KT 9999 SCT025 TEMPO 2320/2412 6000 NSC TEMPO 2322/2408 VRB03KT 3000 HZ NSC

Wetterbeobachtungen und Prognosen von mehr als 4000 Flughäfen (METAR und TAF Bericht).

Die verfügbaren Stationen werden durch gelbe und rote Markierungen auf der Karte dargestellt.

Führen Sie die Maus auf sie, um den Namen der Station zu sehen.

Darauf klicken, um die Beobachtung von Wetterbeobachtungen und Prognosen zu sehen.

Um die Karte zu ändern : klicken Sie auf den grünen Tasten mit einem schwarzen Kreuz Zum Vergrößern, auf den grünen Button mit einem Gedankenstrich zu verkleinern, oder auf die grünen Pfeile für benachbarte Karten.


METAR-TAF: